This is the latest recevied weather packets stored in our database for station/object AB4KN. If no packets are shown the sender has not sent any weather packets the latest 1 day(s).
| Time | Temp. | Humidity | Pressure | Rain* | Wind** | Luminosity | Snow |
|---|---|---|---|---|---|---|---|
| 1778088344 | 25.56° C | 66% | 1019.8 hPa | 0 mm | - | 632 W/m² | - |
| 1778088040 | 25° C | 66% | 1019.9 hPa | 0 mm | - | 402 W/m² | - |
| 1778086830 | 25° C | 68% | 1020.2 hPa | 0 mm | - | 418 W/m² | - |
| 1778086224 | 24.44° C | 67% | 1020.7 hPa | 0 mm | - | 267 W/m² | - |
| 1778085921 | 24.44° C | 68% | 1020.7 hPa | 0 mm | - | 166 W/m² | - |
| 1778084404 | 25° C | 66% | 1020.8 hPa | 0 mm | - | 246 W/m² | - |
| 1778082891 | 23.89° C | 69% | 1021.4 hPa | 0 mm | - | 281 W/m² | - |
| 1778081783 | 22.78° C | 73% | 1021.8 hPa | 0 mm | - | 298 W/m² | - |
| 1778081177 | 22.78° C | 74% | 1021.5 hPa | 0 mm | - | 89 W/m² | - |
| 1778080875 | 22.22° C | 74% | 1021.5 hPa | 0 mm | - | 158 W/m² | - |
| 1778078754 | 21.67° C | 75% | 1021.4 hPa | 0 mm | - | 61 W/m² | - |
| 1778078451 | 21.67° C | 75% | 1021.6 hPa | 0 mm | - | 95 W/m² | - |
| 1778076940 | 21.11° C | 77% | 1021 hPa | 0 mm | - | 81 W/m² | - |
| 1778074818 | 20° C | 81% | 1020.4 hPa | 0 mm | - | 56 W/m² | - |
| 1778074212 | 20° C | 82% | 1020.4 hPa | 0 mm | - | 45 W/m² | - |
| 1778071790 | 18.89° C | 84% | 1020.7 hPa | 0 mm | - | 42 W/m² | - |
| 1778069672 | 18.33° C | 85% | 1020.1 hPa | 0 mm | - | 13 W/m² | - |
| 1778068764 | 18.33° C | 85% | 1019.8 hPa | 0 mm | - | 20 W/m² | - |
| 1778068160 | 18.33° C | 85% | 1019.8 hPa | 0 mm | - | 22 W/m² | - |
| 1778067857 | 17.78° C | 85% | 1019.9 hPa | 0 mm | - | 12 W/m² | - |
| 1778067556 | 17.78° C | 85% | 1019.7 hPa | 0 mm | - | 15 W/m² | - |
| 1778067253 | 17.78° C | 85% | 1019.7 hPa | 0 mm | - | 9 W/m² | - |
| 1778065739 | 17.78° C | 84% | 1019.8 hPa | 0 mm | - | 2 W/m² | - |
| 1778065133 | 17.78° C | 84% | 1019.8 hPa | 0 mm | - | 0 W/m² | - |
| 1778062407 | 17.22° C | 82% | 1018.6 hPa | 0 mm | - | 0 W/m² | - |
* Rain latest hour (hover to see other rain measurements)
** Current wind speed in m/s (hover to see current wind gust speed)